Time;durP1;ratioP1;P1;durP2;ratioP2;P2;SDS_P1;SDS_P2;PMS_P1;PMS_P2;Temp;Humidity;BMP_temperature;BMP_pressure;BME280_temperature;BME280_humidity;BME280_pressure;Samples;Min_cycle;Max_cycle;Signal;HPM_P1;HPM_P2
2023/03/10 00:01:24;;;;;;;13.68;5.95;;;;;;;12.51;59.41;94500.50;5029083;28;20116;-78
2023/03/10 00:03:56;;;;;;;11.07;4.72;;;;;;;12.02;60.17;94456.19;5025795;28;20049;-76
2023/03/10 00:06:24;;;;;;;15.70;4.97;;;;;;;12.53;59.29;94498.34;5027566;28;20034;-76
2023/03/10 00:08:50;;;;;;;14.25;5.35;;;;;;;12.65;58.82;94508.47;5017055;28;20060;-77
2023/03/10 00:11:18;;;;;;;12.32;5.32;;;;;;;12.37;59.72;94507.75;5003414;28;20033;-77
2023/03/10 00:13:45;;;;;;;10.82;4.82;;;;;;;12.47;59.60;94509.41;5029363;28;20127;-77
2023/03/10 00:16:22;;;;;;;9.65;4.47;;;;;;;11.72;59.87;94425.72;5028317;28;20045;-77
2023/03/10 00:18:49;;;;;;;12.60;5.68;;;;;;;12.20;60.36;94510.28;5018479;28;20037;-77
2023/03/10 00:21:20;;;;;;;14.50;4.78;;;;;;;11.99;61.07;94508.03;5026473;28;20128;-77
2023/03/10 00:23:47;;;;;;;10.30;4.53;;;;;;;11.80;61.31;94491.44;5021474;28;20139;-77
2023/03/10 00:26:15;;;;;;;10.43;3.50;;;;;;;11.77;62.20;94499.22;5036853;28;20116;-77
2023/03/10 00:28:42;;;;;;;10.63;3.83;;;;;;;11.60;62.13;94476.66;5013061;28;20060;-77
2023/03/10 00:31:16;;;;;;;9.32;3.65;;;;;;;11.89;61.68;94507.47;5027265;28;20075;-77
2023/03/10 00:33:43;;;;;;;6.50;3.30;;;;;;;11.83;62.09;94500.69;5028081;28;20480;-77
2023/03/10 00:36:15;;;;;;;7.88;3.28;;;;;;;11.73;62.07;94504.31;5015249;28;20041;-77
2023/03/10 00:38:42;;;;;;;5.47;2.65;;;;;;;11.97;61.72;94506.78;5017017;28;20041;-77
2023/03/10 00:41:13;;;;;;;8.82;3.90;;;;;;;12.09;60.91;94506.25;5022019;28;20033;-77
2023/03/10 00:43:39;;;;;;;8.85;3.28;;;;;;;11.83;60.61;94455.50;5014026;28;20420;-77
2023/03/10 00:46:07;;;;;;;6.18;3.17;;;;;;;12.18;60.11;94499.16;5025536;28;20049;-77
2023/03/10 00:48:36;;;;;;;11.80;4.18;;;;;;;12.06;60.75;94494.34;5026874;28;20033;-77
2023/03/10 00:51:03;;;;;;;13.27;3.47;;;;;;;12.09;60.45;94499.06;5027306;28;20053;-77
2023/03/10 00:53:30;;;;;;;11.10;2.97;;;;;;;11.99;60.72;94497.41;5010570;28;20091;-77
2023/03/10 00:56:03;;;;;;;9.52;3.97;;;;;;;11.99;60.71;94493.97;5012712;28;20030;-77
2023/03/10 00:58:31;;;;;;;9.23;3.38;;;;;;;11.73;61.72;94487.59;5024055;28;20522;-78
2023/03/10 01:00:58;;;;;;;8.75;4.20;;;;;;;11.81;61.67;94492.25;5016438;28;20048;-79
2023/03/10 01:03:24;;;;;;;9.88;4.03;;;;;;;11.56;60.83;94435.88;5012523;28;20026;-78
2023/03/10 01:05:50;;;;;;;10.07;4.45;;;;;;;11.79;60.64;94470.50;5027302;28;20042;-78
2023/03/10 01:08:16;;;;;;;12.10;4.22;;;;;;;12.00;60.73;94495.53;5027526;28;20033;-78
2023/03/10 01:10:42;;;;;;;8.88;4.20;;;;;;;11.92;60.77;94489.06;5024544;28;20037;-79
2023/03/10 01:13:12;;;;;;;8.00;4.00;;;;;;;11.86;61.21;94498.22;5022715;28;20029;-78
2023/03/10 01:15:38;;;;;;;7.93;3.80;;;;;;;11.47;61.51;94452.78;5028575;28;20363;-79
2023/03/10 01:18:04;;;;;;;8.18;4.50;;;;;;;11.34;62.91;94485.44;5030087;28;20059;-79
2023/03/10 01:20:31;;;;;;;8.02;3.65;;;;;;;11.51;62.78;94502.38;5031984;28;20094;-79
2023/03/10 01:22:59;;;;;;;9.02;3.60;;;;;;;11.49;63.01;94501.06;5031564;28;20514;-79
2023/03/10 01:25:24;;;;;;;9.27;3.88;;;;;;;11.11;62.46;94415.53;5021274;28;20030;-79
2023/03/10 01:27:50;;;;;;;12.50;3.63;;;;;;;11.21;61.94;94432.03;5050840;28;20094;-79
2023/03/10 01:30:15;;;;;;;7.80;4.00;;;;;;;11.57;62.12;94463.22;5032453;28;20029;-79
2023/03/10 01:32:41;;;;;;;7.80;3.72;;;;;;;11.81;61.73;94482.41;5032237;28;20034;-80
2023/03/10 01:35:07;;;;;;;5.47;3.40;;;;;;;11.60;61.77;94497.91;5016737;28;20087;-79
2023/03/10 01:37:33;;;;;;;9.27;3.38;;;;;;;11.51;61.76;94478.47;5028461;28;20542;-79
2023/03/10 01:40:00;;;;;;;7.15;3.17;;;;;;;11.51;62.40;94481.13;5031924;28;20161;-79
2023/03/10 01:42:26;;;;;;;6.75;3.45;;;;;;;10.50;62.13;94346.91;5029889;28;20036;-79
2023/03/10 01:45:08;;;;;;;11.80;3.95;;;;;;;11.62;62.17;94497.63;5012981;28;20443;-79
2023/03/10 01:47:34;;;;;;;5.05;2.75;;;;;;;11.33;62.20;94463.41;5031052;28;20156;-79
2023/03/10 01:50:01;;;;;;;10.45;3.65;;;;;;;11.02;61.65;94419.94;5032644;28;20045;-79
2023/03/10 01:52:30;;;;;;;9.70;3.67;;;;;;;11.53;61.73;94507.34;5030231;28;20463;-79
2023/03/10 01:55:10;;;;;;;5.68;3.03;;;;;;;11.07;62.09;94449.03;5029596;28;20041;-79
2023/03/10 01:57:48;;;;;;;17.25;4.05;;;;;;;11.03;62.20;94440.09;5030791;28;20510;-79
2023/03/10 02:00:15;;;;;;;12.93;3.58;;;;;;;11.53;62.38;94512.66;5031429;28;20048;-79
2023/03/10 02:02:56;;;;;;;10.38;3.63;;;;;;;11.13;62.27;94475.22;5044579;28;20120;-79
2023/03/10 02:05:23;;;;;;;9.38;3.60;;;;;;;10.84;63.21;94440.94;5013070;28;20498;-79
2023/03/10 02:07:49;;;;;;;7.30;3.58;;;;;;;11.19;63.03;94510.38;5042963;28;20046;-79
2023/03/10 02:10:15;;;;;;;7.07;3.55;;;;;;;10.68;63.41;94436.97;5015575;28;20068;-79
2023/03/10 02:12:42;;;;;;;6.30;3.10;;;;;;;10.76;63.43;94435.53;5016613;28;20496;-79
2023/03/10 02:15:09;;;;;;;6.47;2.95;;;;;;;10.39;64.37;94436.41;5030791;28;20025;-79
2023/03/10 02:17:35;;;;;;;8.93;3.35;;;;;;;10.61;64.96;94483.50;5024291;28;20034;-77
2023/03/10 02:20:08;;;;;;;9.40;3.50;;;;;;;10.78;63.68;94483.75;5020774;28;20037;-77
2023/03/10 02:22:36;;;;;;;9.25;3.35;;;;;;;10.57;63.85;94461.31;5030412;28;20039;-77
2023/03/10 02:25:16;;;;;;;7.82;3.40;;;;;;;11.02;63.73;94505.63;5019761;28;20041;-77
2023/03/10 02:27:43;;;;;;;9.88;3.58;;;;;;;10.17;63.75;94381.38;5029218;28;20044;-77
2023/03/10 02:30:29;;;;;;;7.18;3.08;;;;;;;10.74;63.17;94459.72;5011886;28;20026;-77
2023/03/10 02:32:59;;;;;;;5.97;3.25;;;;;;;10.84;63.73;94501.94;5014252;28;20162;-77
2023/03/10 02:35:24;;;;;;;8.00;3.50;;;;;;;10.59;63.52;94443.25;5032634;28;20033;-77
2023/03/10 02:37:50;;;;;;;6.90;3.30;;;;;;;11.06;63.58;94503.19;5024337;28;20482;-77
2023/03/10 02:40:39;;;;;;;7.97;3.58;;;;;;;11.13;62.97;94495.66;5014093;28;20026;-78
2023/03/10 02:43:16;;;;;;;7.60;3.33;;;;;;;10.99;63.24;94473.59;5023484;28;20053;-79
2023/03/10 02:45:44;;;;;;;7.40;3.70;;;;;;;10.73;63.62;94463.44;5015393;28;20114;-79
2023/03/10 02:48:13;;;;;;;9.48;2.90;;;;;;;10.31;63.43;94387.50;5012345;28;20120;-79
2023/03/10 02:50:41;;;;;;;6.32;3.13;;;;;;;11.01;63.45;94504.06;5029946;28;20034;-79
2023/03/10 02:53:13;;;;;;;9.30;3.55;;;;;;;11.02;63.59;94496.88;5044270;28;20115;-79
2023/03/10 02:55:39;;;;;;;11.05;3.58;;;;;;;11.01;63.05;94501.41;5014831;28;20060;-79
2023/03/10 02:58:07;;;;;;;9.90;3.58;;;;;;;10.94;63.74;94487.75;5027484;28;20053;-79
2023/03/10 03:00:37;;;;;;;11.82;3.72;;;;;;;10.99;63.48;94494.81;5014660;28;20037;-79
2023/03/10 03:03:02;;;;;;;7.40;3.72;;;;;;;10.73;63.90;94460.78;5029374;28;20360;-79
2023/03/10 03:05:28;;;;;;;6.97;3.45;;;;;;;11.01;63.58;94501.41;5023779;28;20030;-79
2023/03/10 03:07:53;;;;;;;6.40;3.80;;;;;;;11.06;63.05;94503.97;5021424;28;20048;-79
2023/03/10 03:10:19;;;;;;;8.40;3.50;;;;;;;10.65;63.48;94429.63;5052986;28;20397;-79
2023/03/10 03:12:44;;;;;;;8.63;3.55;;;;;;;11.15;63.47;94504.88;5044236;28;20033;-79
2023/03/10 03:15:10;;;;;;;7.32;3.78;;;;;;;11.18;63.18;94504.28;5018308;28;20092;-79
2023/03/10 03:17:35;;;;;;;12.52;3.92;;;;;;;11.22;62.94;94499.97;5024900;28;20037;-79
2023/03/10 03:20:10;;;;;;;10.52;4.18;;;;;;;10.81;63.51;94438.91;5030937;28;20170;-79
2023/03/10 03:22:36;;;;;;;10.07;2.97;;;;;;;10.76;63.21;94417.75;5028970;28;20029;-79
2023/03/10 03:25:01;;;;;;;12.18;3.25;;;;;;;10.75;63.04;94429.47;5009731;28;20631;-79
2023/03/10 03:27:27;;;;;;;9.43;4.18;;;;;;;10.95;63.05;94446.88;5012690;28;20576;-79
2023/03/10 03:29:52;;;;;;;7.65;3.95;;;;;;;10.53;63.34;94368.31;5044924;28;20504;-79
2023/03/10 03:32:17;;;;;;;10.68;3.47;;;;;;;11.33;63.29;94484.66;5029952;28;20067;-79
2023/03/10 03:34:43;;;;;;;10.40;3.97;;;;;;;11.37;63.28;94490.94;5026005;28;20389;-79
2023/03/10 03:37:08;;;;;;;9.63;3.58;;;;;;;11.03;62.98;94437.44;5028821;28;20539;-79
2023/03/10 03:39:34;;;;;;;7.65;3.40;;;;;;;11.30;63.07;94487.88;5029215;28;20029;-79
2023/03/10 03:41:59;;;;;;;6.10;3.30;;;;;;;11.07;63.25;94444.50;5049918;28;20500;-79
2023/03/10 03:44:25;;;;;;;6.88;3.33;;;;;;;11.34;63.02;94485.44;5028077;28;20061;-79
2023/03/10 03:46:50;;;;;;;10.85;4.13;;;;;;;10.67;63.29;94373.66;5020596;28;20034;-79
2023/03/10 03:49:16;;;;;;;9.13;3.38;;;;;;;11.29;63.08;94493.50;5045225;28;20407;-79
2023/03/10 03:51:43;;;;;;;16.80;4.30;;;;;;;11.15;62.76;94465.06;5026829;28;20029;-79
2023/03/10 03:54:08;;;;;;;7.60;3.45;;;;;;;10.95;62.99;94436.25;5029877;28;20124;-79
2023/03/10 03:56:34;;;;;;;10.30;3.47;;;;;;;11.26;62.76;94478.94;5026557;28;20218;-79
2023/03/10 03:58:59;;;;;;;10.68;3.45;;;;;;;11.46;62.73;94501.66;5045042;28;20037;-79
2023/03/10 04:01:25;;;;;;;13.52;4.45;;;;;;;11.47;62.83;94492.59;5025085;28;20753;-79
2023/03/10 04:03:50;;;;;;;10.93;3.67;;;;;;;11.44;62.89;94491.31;5027320;28;20041;-79
2023/03/10 04:06:16;;;;;;;8.90;3.72;;;;;;;11.05;62.50;94430.78;5010632;28;20029;-79
2023/03/10 04:08:42;;;;;;;16.40;4.15;;;;;;;11.33;62.99;94476.69;5027984;28;20040;-78
2023/03/10 04:11:07;;;;;;;10.30;3.95;;;;;;;10.92;63.01;94406.88;5029080;28;20052;-79
2023/03/10 04:13:33;;;;;;;9.50;3.97;;;;;;;11.26;62.75;94459.56;5026293;28;20061;-79
2023/03/10 04:15:58;;;;;;;9.32;4.35;;;;;;;11.27;62.60;94453.19;5029507;28;20083;-79
2023/03/10 04:18:24;;;;;;;20.10;4.68;;;;;;;11.18;62.79;94439.81;5026745;28;20622;-79
2023/03/10 04:20:49;;;;;;;19.50;5.38;;;;;;;11.55;62.67;94492.72;5026524;28;20033;-79
2023/03/10 04:23:15;;;;;;;17.90;4.93;;;;;;;11.09;63.84;94463.59;5029118;28;20119;-79
2023/03/10 04:25:42;;;;;;;19.00;4.82;;;;;;;11.19;63.91;94482.00;5044680;28;20037;-79
2023/03/10 04:28:08;;;;;;;7.63;4.32;;;;;;;11.36;63.52;94478.75;5015946;28;20425;-78
2023/03/10 04:30:33;;;;;;;11.77;5.82;;;;;;;11.43;63.60;94479.16;5011650;28;20095;-79
2023/03/10 04:32:59;;;;;;;23.58;7.25;;;;;;;10.99;63.37;94405.41;5009030;28;20397;-79
2023/03/10 04:35:25;;;;;;;16.80;7.30;;;;;;;10.83;63.38;94383.66;5026692;28;20542;-79
2023/03/10 04:37:51;;;;;;;11.00;6.40;;;;;;;11.48;63.67;94476.38;5023586;28;20025;-78
2023/03/10 04:40:17;;;;;;;21.20;6.95;;;;;;;11.19;63.38;94420.94;5043183;28;20091;-78
2023/03/10 04:42:42;;;;;;;18.50;7.18;;;;;;;11.14;63.05;94402.44;5007761;28;20030;-78
2023/03/10 04:45:08;;;;;;;17.00;7.15;;;;;;;11.25;63.27;94418.97;5025440;28;20107;-79
2023/03/10 04:47:34;;;;;;;18.35;7.75;;;;;;;11.33;62.88;94422.81;5030854;28;20062;-80
2023/03/10 04:49:59;;;;;;;14.13;8.18;;;;;;;11.03;62.93;94379.84;5009970;28;20114;-78
2023/03/10 04:52:25;;;;;;;28.13;9.30;;;;;;;11.40;62.64;94433.81;5024643;28;20098;-78
2023/03/10 04:54:50;;;;;;;20.90;8.60;;;;;;;11.01;62.29;94368.75;5023265;28;20117;-78
2023/03/10 04:57:16;;;;;;;18.60;9.40;;;;;;;11.48;62.98;94459.66;5013985;28;20067;-78
2023/03/10 04:59:41;;;;;;;20.25;8.23;;;;;;;11.07;62.72;94394.09;5026883;28;20045;-78
2023/03/10 05:02:07;;;;;;;21.77;8.10;;;;;;;11.06;62.65;94397.06;5010961;28;20038;-79
2023/03/10 05:04:32;;;;;;;20.92;7.53;;;;;;;11.22;62.38;94411.59;5026129;28;20033;-79
2023/03/10 05:06:57;;;;;;;14.30;7.03;;;;;;;11.40;62.37;94444.44;5022072;28;20033;-78
2023/03/10 05:09:23;;;;;;;15.77;8.43;;;;;;;11.32;62.70;94437.16;5010998;28;20037;-79
2023/03/10 05:11:48;;;;;;;13.80;7.40;;;;;;;10.51;62.92;94312.16;5026402;28;20036;-79
2023/03/10 05:14:14;;;;;;;17.15;8.48;;;;;;;11.33;62.78;94428.13;5018854;28;20040;-79
2023/03/10 05:16:40;;;;;;;15.77;7.97;;;;;;;10.44;62.82;94312.56;5017549;28;20171;-81
2023/03/10 05:19:06;;;;;;;15.90;8.10;;;;;;;10.51;62.60;94333.38;5012722;28;20124;-82
2023/03/10 05:21:32;;;;;;;17.98;7.93;;;;;;;11.25;62.80;94452.69;5018625;28;20026;-79
2023/03/10 05:23:57;;;;;;;14.30;8.25;;;;;;;10.70;62.72;94354.50;5032190;28;20495;-79
2023/03/10 05:26:23;;;;;;;21.88;8.38;;;;;;;11.23;63.17;94440.50;5012036;28;20071;-80
2023/03/10 05:28:49;;;;;;;21.58;8.65;;;;;;;11.15;63.50;94435.06;4996578;28;20452;-80
2023/03/10 05:31:16;;;;;;;12.73;7.63;;;;;;;10.85;64.71;94439.09;5012125;28;20112;-80
2023/03/10 05:33:42;;;;;;;23.08;7.90;;;;;;;10.72;64.86;94434.53;5021028;28;20038;-79
2023/03/10 05:36:10;;;;;;;17.73;7.38;;;;;;;10.75;64.50;94407.44;5006100;28;20030;-78
2023/03/10 05:38:36;;;;;;;23.30;8.55;;;;;;;10.93;64.83;94429.66;5013607;28;20038;-79
2023/03/10 05:41:04;;;;;;;28.73;8.18;;;;;;;10.43;64.77;94348.09;5018968;28;20108;-79
2023/03/10 05:43:30;;;;;;;15.93;6.80;;;;;;;10.89;65.15;94418.06;5015020;28;20072;-79
2023/03/10 05:45:57;;;;;;;16.27;6.65;;;;;;;10.82;65.33;94419.25;5012651;28;20356;-79
2023/03/10 05:48:23;;;;;;;13.18;6.88;;;;;;;10.49;64.97;94346.13;5009913;28;20037;-79
2023/03/10 05:51:03;;;;;;;17.52;7.30;;;;;;;11.10;64.70;94424.56;5017169;28;20238;-79
2023/03/10 05:53:30;;;;;;;21.60;7.25;;;;;;;10.49;64.01;94305.56;5015132;28;20428;-80
2023/03/10 05:55:56;;;;;;;15.45;7.45;;;;;;;11.02;64.16;94377.50;5011687;28;20045;-82
2023/03/10 05:58:22;;;;;;;14.57;6.78;;;;;;;10.54;64.38;94318.72;5012146;28;20026;-80
2023/03/10 06:00:48;;;;;;;11.75;6.35;;;;;;;11.23;64.44;94407.84;5005353;28;20660;-80
2023/03/10 06:03:13;;;;;;;15.50;6.88;;;;;;;11.02;64.39;94391.56;5010074;28;20033;-80
2023/03/10 06:05:39;;;;;;;14.48;6.63;;;;;;;11.03;64.02;94377.22;5037593;28;20045;-81
2023/03/10 06:08:04;;;;;;;13.35;6.35;;;;;;;11.26;63.90;94386.03;5015101;28;20059;-81
2023/03/10 06:10:30;;;;;;;19.83;6.40;;;;;;;11.11;63.44;94357.94;5005251;28;20026;-83
2023/03/10 06:12:55;;;;;;;16.85;5.72;;;;;;;11.54;63.40;94429.28;5003934;28;20119;-85
2023/03/10 06:15:21;;;;;;;15.70;6.38;;;;;;;10.99;63.26;94331.09;5014879;28;20155;-82
2023/03/10 06:17:46;;;;;;;11.48;5.43;;;;;;;11.19;62.94;94343.19;5030151;28;20056;-86
2023/03/10 06:20:12;;;;;;;17.92;4.82;;;;;;;11.18;62.58;94339.75;5025435;28;20117;-83
2023/03/10 06:22:38;;;;;;;13.32;4.95;;;;;;;11.65;62.65;94424.53;4997524;28;20080;-83
2023/03/10 06:25:04;;;;;;;16.85;6.22;;;;;;;11.07;62.66;94324.31;5016615;28;20192;-81
2023/03/10 06:27:30;;;;;;;9.30;4.28;;;;;;;11.25;62.27;94338.56;5012553;28;20537;-81
2023/03/10 06:29:55;;;;;;;7.93;4.05;;;;;;;11.18;62.25;94338.97;5010137;28;20463;-82
2023/03/10 06:32:21;;;;;;;8.68;4.40;;;;;;;11.18;62.00;94339.75;5008264;28;20037;-82
2023/03/10 06:34:46;;;;;;;11.55;4.72;;;;;;;11.76;62.29;94433.88;5013472;28;20041;-82
2023/03/10 06:37:12;;;;;;;8.43;4.07;;;;;;;11.64;61.53;94375.16;5018585;28;20047;-84
2023/03/10 06:39:38;;;;;;;37.47;15.20;;;;;;;11.91;62.02;94429.03;5012318;28;20041;-82
2023/03/10 06:42:04;;;;;;;16.90;8.00;;;;;;;11.91;61.51;94423.72;5014356;28;20052;-83
2023/03/10 06:44:30;;;;;;;14.75;7.25;;;;;;;11.49;61.61;94350.50;5028893;28;20061;-82
2023/03/10 06:46:55;;;;;;;15.82;5.03;;;;;;;11.26;61.59;94301.09;5012254;28;20490;-83
2023/03/10 06:49:21;;;;;;;13.43;5.38;;;;;;;11.27;61.48;94284.09;5008370;28;20867;-82
2023/03/10 06:51:46;;;;;;;17.20;6.03;;;;;;;10.99;61.22;94227.63;4997762;28;20033;-82
2023/03/10 06:54:12;;;;;;;15.10;5.85;;;;;;;12.14;61.29;94373.25;5005777;28;20561;-82
2023/03/10 06:56:38;;;;;;;20.88;6.32;;;;;;;12.06;61.02;94360.69;5013514;28;20044;-81
2023/03/10 06:59:05;;;;;;;21.60;5.90;;;;;;;11.61;60.72;94287.03;5012512;28;20037;-82
2023/03/10 07:01:32;;;;;;;30.50;7.13;;;;;;;12.67;60.30;94437.09;5000926;28;20045;-80
2023/03/10 07:04:00;;;;;;;15.48;6.05;;;;;;;12.64;60.14;94435.84;5007209;28;20538;-79
2023/03/10 07:06:26;;;;;;;17.35;5.97;;;;;;;12.62;60.04;94426.59;5012033;28;20040;-80
2023/03/10 07:08:53;;;;;;;16.95;5.72;;;;;;;12.75;59.65;94436.38;5001839;28;20044;-80
2023/03/10 07:11:18;;;;;;;17.63;5.75;;;;;;;12.19;59.52;94334.06;5002834;28;20288;-82
2023/03/10 07:13:44;;;;;;;19.95;6.03;;;;;;;12.14;58.95;94320.88;5007178;28;20044;-81
2023/03/10 07:16:09;;;;;;;12.95;5.22;;;;;;;12.55;59.14;94363.19;5013481;28;20042;-81
2023/03/10 07:18:35;;;;;;;13.43;5.18;;;;;;;12.89;58.57;94388.41;5012503;28;20037;-81
2023/03/10 07:21:00;;;;;;;19.77;6.68;;;;;;;12.42;59.75;94342.00;5007200;28;20123;-82
2023/03/10 07:23:26;;;;;;;23.83;6.80;;;;;;;12.62;59.60;94352.91;5008794;28;20041;-82
2023/03/10 07:25:55;;;;;;;15.77;6.03;;;;;;;13.10;59.41;94406.19;5013272;28;20420;-81
2023/03/10 07:28:21;;;;;;;13.48;5.38;;;;;;;12.71;58.74;94331.66;5014040;28;20442;-82
2023/03/10 07:30:48;;;;;;;14.80;5.55;;;;;;;12.33;58.90;94270.94;5015576;28;20128;-82
2023/03/10 07:33:13;;;;;;;14.93;5.47;;;;;;;13.23;58.83;94403.75;5009644;28;20034;-82
2023/03/10 07:35:39;;;;;;;16.90;6.32;;;;;;;12.94;58.53;94356.31;5012683;28;20072;-83
2023/03/10 07:38:04;;;;;;;17.70;6.25;;;;;;;12.65;58.79;94299.09;5012560;28;20055;-83
2023/03/10 07:40:29;;;;;;;15.85;5.75;;;;;;;12.55;58.19;94317.97;5010122;28;20042;-84
2023/03/10 07:42:55;;;;;;;13.55;5.15;;;;;;;13.08;58.22;94383.63;5013125;28;20551;-84
2023/03/10 07:45:22;;;;;;;10.43;4.63;;;;;;;13.02;58.08;94336.94;5013254;28;20048;-83
2023/03/10 07:47:53;;;;;;;13.27;5.28;;;;;;;12.89;57.75;94304.00;5017026;28;20080;-83
2023/03/10 07:50:20;;;;;;;11.65;5.13;;;;;;;13.49;57.84;94391.31;5010806;28;20486;-84
2023/03/10 07:52:46;;;;;;;9.23;5.53;;;;;;;13.01;57.70;94284.81;5006909;28;20460;-82
2023/03/10 07:55:12;;;;;;;9.20;4.75;;;;;;;13.19;57.99;94293.66;5011883;28;20061;-86
2023/03/10 07:57:37;;;;;;;16.00;6.05;;;;;;;13.36;57.31;94313.06;4997420;28;20156;-83
2023/03/10 08:00:05;;;;;;;15.23;4.40;;;;;;;13.82;57.67;94371.09;5003616;28;20029;-83
2023/03/10 08:02:31;;;;;;;9.85;4.75;;;;;;;13.91;57.08;94361.25;5036442;28;20553;-84
2023/03/10 08:04:56;;;;;;;13.55;4.63;;;;;;;13.36;56.66;94251.81;5013915;28;20078;-83
2023/03/10 08:07:26;;;;;;;15.95;5.95;;;;;;;13.63;56.74;94285.38;5009719;28;20116;-84
2023/03/10 08:09:53;;;;;;;8.27;4.32;;;;;;;14.15;56.55;94350.09;5033974;28;20519;-82
2023/03/10 08:12:20;;;;;;;9.38;3.53;;;;;;;14.03;56.24;94362.50;4997456;28;20040;-83
2023/03/10 08:14:47;;;;;;;12.25;4.25;;;;;;;13.37;57.03;94257.94;5032650;28;20140;-83
2023/03/10 08:17:13;;;;;;;9.68;3.72;;;;;;;13.28;56.74;94209.22;5008983;28;20087;-82
2023/03/10 08:19:38;;;;;;;6.78;4.15;;;;;;;13.93;56.05;94293.50;5011379;28;20057;-83
2023/03/10 08:22:04;;;;;;;17.75;4.60;;;;;;;13.19;56.56;94184.50;5007307;28;20029;-82
2023/03/10 08:24:30;;;;;;;11.43;5.03;;;;;;;13.19;56.99;94195.94;5009529;28;20553;-83
2023/03/10 08:26:56;;;;;;;11.60;5.57;;;;;;;14.28;56.91;94317.13;5035430;28;20115;-82
2023/03/10 08:29:22;;;;;;;14.05;5.22;;;;;;;14.00;56.79;94264.50;5025996;28;20036;-83
2023/03/10 08:31:48;;;;;;;17.13;5.65;;;;;;;13.66;56.83;94193.38;5029562;28;20029;-84
2023/03/10 08:34:14;;;;;;;30.35;6.72;;;;;;;13.58;56.11;94165.63;5034848;28;20530;-82
2023/03/10 08:36:40;;;;;;;19.30;7.00;;;;;;;13.67;56.73;94184.28;5013030;28;20432;-84
2023/03/10 08:39:06;;;;;;;15.98;5.22;;;;;;;13.74;56.35;94163.25;5012042;28;20035;-81
2023/03/10 08:41:37;;;;;;;10.93;4.70;;;;;;;13.84;55.59;94163.72;5002375;28;20120;-82
2023/03/10 08:44:04;;;;;;;11.85;5.55;;;;;;;14.81;55.17;94288.44;5006646;28;20444;-84
2023/03/10 08:46:30;;;;;;;14.35;5.25;;;;;;;14.74;55.20;94254.25;5007799;28;20117;-84
2023/03/10 08:48:56;;;;;;;16.10;4.93;;;;;;;14.51;54.75;94208.34;5007379;28;20579;-84
2023/03/10 08:51:23;;;;;;;14.63;5.15;;;;;;;14.71;54.06;94225.53;5018142;28;20108;-83
2023/03/10 08:53:49;;;;;;;19.33;5.70;;;;;;;14.54;53.63;94193.59;4996869;28;20272;-84
2023/03/10 08:56:16;;;;;;;13.35;5.68;;;;;;;15.12;53.56;94272.09;5011006;28;20416;-84
2023/03/10 08:58:42;;;;;;;17.55;6.05;;;;;;;14.65;54.35;94189.44;5010759;28;20063;-84
2023/03/10 09:01:08;;;;;;;21.30;5.63;;;;;;;14.53;54.07;94146.66;5008660;28;20411;-83
2023/03/10 09:03:35;;;;;;;14.50;4.85;;;;;;;14.92;53.52;94198.88;5000744;28;20804;-79
2023/03/10 09:06:02;;;;;;;16.25;4.65;;;;;;;15.14;53.72;94235.19;5022327;28;20041;-79
2023/03/10 09:08:27;;;;;;;11.93;4.97;;;;;;;14.61;53.89;94140.50;5011278;28;20086;-80
2023/03/10 09:10:53;;;;;;;18.48;7.05;;;;;;;14.50;53.98;94144.63;5033187;28;20025;-81
2023/03/10 09:13:18;;;;;;;22.60;7.38;;;;;;;14.70;53.91;94138.56;5002565;28;20042;-80
2023/03/10 09:15:44;;;;;;;29.42;8.07;;;;;;;15.11;53.74;94193.88;5001682;28;20029;-80
2023/03/10 09:18:12;;;;;;;23.20;6.90;;;;;;;15.43;52.91;94230.56;5006256;28;20034;-80
2023/03/10 09:20:39;;;;;;;16.67;7.18;;;;;;;15.36;53.18;94251.66;5000502;28;20049;-80
2023/03/10 09:23:06;;;;;;;15.82;6.78;;;;;;;14.82;52.67;94145.88;5006789;28;20044;-80
2023/03/10 09:25:33;;;;;;;16.25;7.53;;;;;;;14.97;52.70;94150.63;5006980;28;20430;-80
2023/03/10 09:27:58;;;;;;;14.60;8.38;;;;;;;14.20;53.39;94042.50;5009977;28;20074;-80
2023/03/10 09:30:24;;;;;;;21.67;8.75;;;;;;;14.86;53.38;94144.13;5005195;28;20194;-81
2023/03/10 09:32:51;;;;;;;18.67;7.90;;;;;;;15.15;53.05;94153.94;5002940;28;20367;-80
2023/03/10 09:35:16;;;;;;;19.23;8.30;;;;;;;14.81;53.19;94106.94;5004425;28;20045;-80
2023/03/10 09:37:42;;;;;;;15.68;7.10;;;;;;;15.39;53.91;94221.66;5009340;28;20045;-80
2023/03/10 09:40:14;;;;;;;15.82;7.50;;;;;;;15.33;53.58;94206.91;5010911;28;20037;-80
2023/03/10 09:42:55;;;;;;;15.90;6.25;;;;;;;15.52;53.59;94222.47;5008097;28;20380;-82
2023/03/10 09:45:22;;;;;;;16.58;6.90;;;;;;;15.63;53.37;94218.34;5001187;28;20100;-81
2023/03/10 09:47:54;;;;;;;21.98;6.60;;;;;;;15.75;53.54;94215.69;5011854;28;20103;-81
2023/03/10 09:50:46;;;;;;;14.23;6.70;;;;;;;15.70;53.18;94217.81;5013194;28;20064;-82
2023/03/10 09:53:36;;;;;;;15.15;6.47;;;;;;;15.81;53.20;94202.91;5006511;28;20400;-82
2023/03/10 09:56:17;;;;;;;16.52;6.38;;;;;;;15.08;52.70;94074.38;5032951;28;20060;-82
2023/03/10 09:58:48;;;;;;;13.87;5.97;;;;;;;15.82;53.01;94204.47;5019255;28;20048;-84
2023/03/10 10:01:27;;;;;;;21.15;6.75;;;;;;;15.65;52.70;94169.88;5019916;28;20292;-82
2023/03/10 10:04:05;;;;;;;14.88;6.32;;;;;;;15.47;53.46;94182.59;5020358;28;20247;-82
2023/03/10 10:06:36;;;;;;;13.35;6.03;;;;;;;15.19;53.57;94131.59;5019021;28;20041;-82
2023/03/10 10:09:09;;;;;;;16.30;6.00;;;;;;;15.37;54.91;94191.00;5016263;28;20030;-81
2023/03/10 10:11:35;;;;;;;14.05;6.25;;;;;;;14.46;55.06;94053.81;5010922;28;20559;-82
2023/03/10 10:14:12;;;;;;;17.10;6.53;;;;;;;15.47;54.73;94187.94;5014442;28;20647;-81
2023/03/10 10:16:58;;;;;;;16.05;6.15;;;;;;;15.03;54.84;94110.06;5015124;28;20137;-82
2023/03/10 10:19:26;;;;;;;14.35;6.72;;;;;;;15.04;55.40;94119.63;5013522;28;20067;-81
2023/03/10 10:21:58;;;;;;;19.88;7.40;;;;;;;15.38;55.89;94171.22;5030295;28;20029;-82
2023/03/10 10:24:23;;;;;;;;;;;;;;;15.36;56.23;94157.38;5029369;28;20045;-82
2023/03/10 10:26:48;;;;;;;16.25;7.03;;;;;;;14.96;55.72;94093.00;5015964;28;20455;-81
2023/03/10 10:29:23;;;;;;;14.80;5.95;;;;;;;15.43;55.23;94171.78;5011032;28;20036;-81
2023/03/10 10:32:05;;;;;;;13.20;6.35;;;;;;;15.41;55.73;94165.19;5010092;28;20148;-84
2023/03/10 10:34:31;;;;;;;11.77;5.75;;;;;;;14.35;56.39;94043.81;5004423;28;20036;-83
2023/03/10 10:36:58;;;;;;;18.92;6.93;;;;;;;14.53;55.71;94042.63;5013905;28;20109;-81
2023/03/10 10:39:25;;;;;;;12.95;6.03;;;;;;;15.29;55.99;94151.78;4991615;28;20044;-80
2023/03/10 10:41:50;;;;;;;15.23;6.03;;;;;;;15.36;55.43;94160.84;5035389;28;20060;-81
2023/03/10 10:44:18;;;;;;;10.10;5.40;;;;;;;14.61;55.32;94042.56;5014213;28;20050;-81
2023/03/10 10:46:55;;;;;;;23.90;6.25;;;;;;;15.23;55.44;94139.75;5033988;28;20033;-81
2023/03/10 10:49:27;;;;;;;10.52;5.43;;;;;;;15.36;54.89;94157.38;5015515;28;20063;-82
2023/03/10 10:51:58;;;;;;;19.30;5.68;;;;;;;15.34;55.43;94157.72;5013768;28;20559;-82
2023/03/10 10:54:58;;;;;;;;;;;;;;;15.23;55.43;94159.22;5013256;28;20033;-82
2023/03/10 10:57:52;;;;;;;12.27;5.30;;;;;;;15.05;55.31;94115.06;5027260;28;19927;-87
2023/03/10 11:00:33;;;;;;;12.57;5.32;;;;;;;15.15;55.76;94132.59;5009260;28;20045;-81
2023/03/10 11:02:59;;;;;;;14.63;7.07;;;;;;;15.08;55.65;94119.78;5018392;28;20037;-80
2023/03/10 11:05:30;;;;;;;13.48;6.10;;;;;;;15.06;56.07;94146.00;5014081;28;20542;-80
2023/03/10 11:08:16;;;;;;;13.23;6.05;;;;;;;15.10;56.12;94140.81;5014824;28;20034;-80
2023/03/10 11:10:50;;;;;;;12.88;6.72;;;;;;;14.76;55.81;94086.56;5013708;28;20820;-83
2023/03/10 11:13:24;;;;;;;18.48;6.72;;;;;;;14.59;56.29;94076.78;5010996;28;20140;-81
2023/03/10 11:16:09;;;;;;;13.38;6.57;;;;;;;15.12;56.30;94135.91;5011690;28;20581;-80
2023/03/10 11:18:46;;;;;;;20.35;6.40;;;;;;;14.26;57.75;94034.00;5025030;28;20079;-80
2023/03/10 11:21:24;;;;;;;17.88;7.32;;;;;;;14.92;57.93;94092.88;5007932;28;20037;-80
2023/03/10 11:23:50;;;;;;;23.70;7.32;;;;;;;14.94;59.21;94092.56;5014341;28;20120;-80
2023/03/10 11:26:33;;;;;;;10.65;5.55;;;;;;;15.01;58.39;94080.25;5007679;28;20117;-80
2023/03/10 11:29:25;;;;;;;15.50;5.53;;;;;;;15.06;59.34;94076.59;5011449;28;20548;-80
2023/03/10 11:31:53;;;;;;;;;;;;;;;15.13;58.62;94076.84;5010260;28;20426;-81
2023/03/10 11:34:48;;;;;;;11.82;3.58;;;;;;;14.98;55.96;94072.88;5004444;28;19999;-80